Time;durP1;ratioP1;P1;durP2;ratioP2;P2;SDS_P1;SDS_P2;PMS_P1;PMS_P2;Temp;Humidity;BMP_temperature;BMP_pressure;BME280_temperature;BME280_humidity;BME280_pressure;Samples;Min_cycle;Max_cycle;Signal;HPM_P1;HPM_P2
2023/05/16 00:01:32;;;;;;;16.92;9.45;;;14.40;99.90;;;;;;4161125;28;20394;-70
2023/05/16 00:03:33;;;;;;;15.50;7.97;;;14.40;99.90;;;;;;4163494;28;20037;-71
2023/05/16 00:05:35;;;;;;;13.65;8.00;;;14.40;99.90;;;;;;4162193;28;20033;-61
2023/05/16 00:07:36;;;;;;;10.27;7.65;;;14.40;99.90;;;;;;4163100;28;20080;-73
2023/05/16 00:09:38;;;;;;;9.30;7.63;;;14.40;99.90;;;;;;4162210;28;20029;-71
2023/05/16 00:11:39;;;;;;;15.60;8.65;;;14.40;99.90;;;;;;4161019;28;20076;-72
2023/05/16 00:13:41;;;;;;;15.15;8.43;;;14.40;99.90;;;;;;4162516;28;20042;-62
2023/05/16 00:15:43;;;;;;;12.70;8.13;;;14.40;99.90;;;;;;4152832;28;20100;-70
2023/05/16 00:17:45;;;;;;;13.15;8.18;;;14.40;99.90;;;;;;4147468;28;20033;-69
2023/05/16 00:19:47;;;;;;;12.75;8.43;;;14.40;99.90;;;;;;4145059;28;20038;-68
2023/05/16 00:21:49;;;;;;;13.57;8.00;;;14.40;99.90;;;;;;4146799;28;20107;-71
2023/05/16 00:23:51;;;;;;;10.82;7.35;;;14.40;99.90;;;;;;4146422;28;20038;-69
2023/05/16 00:25:52;;;;;;;18.67;7.82;;;14.50;99.90;;;;;;4146539;28;20092;-69
2023/05/16 00:27:53;;;;;;;13.85;8.77;;;14.40;99.90;;;;;;4145384;28;20022;-68
2023/05/16 00:29:55;;;;;;;9.80;7.43;;;14.40;99.90;;;;;;4146739;28;20025;-71
2023/05/16 00:31:56;;;;;;;14.88;8.00;;;14.30;99.90;;;;;;4145382;28;20422;-61
2023/05/16 00:33:57;;;;;;;16.50;8.35;;;14.30;99.90;;;;;;4146409;28;20034;-61
2023/05/16 00:35:58;;;;;;;16.13;7.57;;;14.30;99.90;;;;;;4144948;28;20466;-72
2023/05/16 00:38:00;;;;;;;15.52;9.15;;;14.30;99.90;;;;;;4146415;28;20026;-65
2023/05/16 00:40:01;;;;;;;11.27;8.20;;;14.40;99.90;;;;;;4145203;28;20467;-72
2023/05/16 00:42:02;;;;;;;13.30;8.63;;;14.30;99.90;;;;;;4145722;28;20034;-69
2023/05/16 00:44:03;;;;;;;13.57;8.15;;;14.30;99.90;;;;;;4157220;28;20060;-62
2023/05/16 00:46:05;;;;;;;12.50;7.80;;;14.30;99.90;;;;;;4161183;28;20088;-63
2023/05/16 00:48:08;;;;;;;13.63;7.13;;;14.30;99.90;;;;;;4161287;28;20417;-60
2023/05/16 00:50:09;;;;;;;12.48;7.55;;;14.30;99.90;;;;;;4161646;28;20029;-61
2023/05/16 00:52:11;;;;;;;11.10;8.38;;;14.20;99.90;;;;;;4162642;28;20158;-61
2023/05/16 00:54:12;;;;;;;13.10;8.57;;;14.30;99.90;;;;;;4161560;28;21056;-66
2023/05/16 00:56:14;;;;;;;15.15;8.27;;;14.20;99.90;;;;;;4162570;28;20037;-60
2023/05/16 00:58:16;;;;;;;15.07;8.10;;;14.20;99.90;;;;;;4161001;28;20138;-68
2023/05/16 01:00:18;;;;;;;13.20;8.07;;;14.20;99.90;;;;;;4162495;28;20022;-65
2023/05/16 01:02:20;;;;;;;11.35;7.80;;;14.20;99.90;;;;;;4161221;28;20059;-60
2023/05/16 01:04:21;;;;;;;14.70;8.25;;;14.10;99.90;;;;;;4162063;28;20460;-61
2023/05/16 01:06:22;;;;;;;14.77;8.07;;;14.10;99.90;;;;;;4160700;28;20037;-60
2023/05/16 01:08:24;;;;;;;10.52;7.43;;;14.10;99.90;;;;;;4162313;28;20026;-71
2023/05/16 01:10:31;;;;;;;14.98;7.90;;;14.10;99.90;;;;;;4161202;28;20060;-61
2023/05/16 01:12:42;;;;;;;16.50;8.15;;;14.00;99.90;;;;;;4161692;28;20083;-71
2023/05/16 01:14:47;;;;;;;16.13;7.73;;;14.00;99.90;;;;;;4161077;28;20560;-62
2023/05/16 01:16:55;;;;;;;13.63;7.93;;;14.00;99.90;;;;;;4162048;28;20025;-68
2023/05/16 01:19:20;;;;;;;13.52;7.32;;;14.00;99.90;;;;;;4161239;28;20918;-60
2023/05/16 01:21:48;;;;;;;11.77;7.38;;;14.00;99.90;;;;;;4132717;28;20053;-60
2023/05/16 01:24:03;;;;;;;12.50;6.67;;;14.00;99.90;;;;;;4160638;28;20021;-61
2023/05/16 01:26:23;;;;;;;14.25;8.25;;;14.00;99.90;;;;;;4144028;28;20034;-61
2023/05/16 01:28:26;;;;;;;14.85;7.50;;;14.00;99.90;;;;;;4126931;28;20669;-61
2023/05/16 01:30:37;;;;;;;14.18;7.40;;;14.00;99.90;;;;;;4145402;28;20446;-62
2023/05/16 01:32:38;;;;;;;13.43;7.00;;;14.00;99.90;;;;;;4144030;28;20037;-61
2023/05/16 01:34:40;;;;;;;14.90;7.50;;;13.90;99.90;;;;;;4144797;28;20124;-61
2023/05/16 01:37:04;;;;;;;11.90;7.10;;;13.90;99.90;;;;;;4144448;28;20471;-60
2023/05/16 01:39:24;;;;;;;13.35;7.00;;;13.80;99.90;;;;;;4145100;28;20100;-71
2023/05/16 01:41:54;;;;;;;13.88;7.68;;;13.90;99.90;;;;;;4144405;28;20040;-60
2023/05/16 01:44:02;;;;;;;10.82;7.68;;;13.90;99.90;;;;;;4138391;28;20111;-60
2023/05/16 01:46:12;;;;;;;11.03;7.63;;;13.90;99.90;;;;;;4144474;28;20473;-61
2023/05/16 01:48:20;;;;;;;11.23;7.00;;;13.90;99.90;;;;;;4144980;28;20049;-61
2023/05/16 01:50:24;;;;;;;11.95;7.35;;;13.90;99.90;;;;;;4144069;28;20528;-72
2023/05/16 01:52:37;;;;;;;13.90;7.83;;;13.80;99.90;;;;;;4145157;28;20033;-61
2023/05/16 01:54:44;;;;;;;14.30;6.90;;;13.80;99.90;;;;;;4144018;28;20046;-61
2023/05/16 01:56:53;;;;;;;12.33;7.57;;;13.80;99.90;;;;;;4145178;28;20034;-61
2023/05/16 01:58:56;;;;;;;10.77;8.40;;;13.80;99.90;;;;;;4144420;28;20025;-60
2023/05/16 02:01:04;;;;;;;16.30;8.47;;;13.80;99.90;;;;;;4144761;28;20112;-60
2023/05/16 02:03:06;;;;;;;16.23;9.02;;;13.70;99.90;;;;;;4143945;28;20042;-61
2023/05/16 02:05:07;;;;;;;12.63;11.33;;;13.70;99.90;;;;;;4145459;28;20427;-61
2023/05/16 02:07:08;;;;;;;18.17;13.67;;;13.60;99.90;;;;;;4126358;28;20089;-61
2023/05/16 02:09:10;;;;;;;15.37;13.10;;;13.70;99.90;;;;;;4145073;28;20537;-66
2023/05/16 02:11:11;;;;;;;23.67;13.77;;;13.60;99.90;;;;;;4143969;28;20029;-70
2023/05/16 02:13:12;;;;;;;12.63;10.30;;;13.70;99.90;;;;;;4144779;28;20421;-61
2023/05/16 02:15:13;;;;;;;14.50;9.20;;;13.60;99.90;;;;;;4143442;28;20532;-60
2023/05/16 02:17:15;;;;;;;14.43;7.90;;;13.60;99.90;;;;;;4144931;28;20100;-62
2023/05/16 02:19:16;;;;;;;12.63;8.03;;;13.60;99.90;;;;;;4144506;28;20100;-70
2023/05/16 02:21:17;;;;;;;11.05;8.18;;;13.70;99.90;;;;;;4144237;28;20050;-60
2023/05/16 02:23:18;;;;;;;9.68;7.78;;;13.70;99.90;;;;;;4145284;28;20030;-61
2023/05/16 02:25:19;;;;;;;12.67;8.13;;;13.60;99.90;;;;;;4143809;28;20442;-59
2023/05/16 02:27:20;;;;;;;13.17;8.87;;;13.70;99.90;;;;;;4144520;28;20038;-60
2023/05/16 02:29:21;;;;;;;14.03;8.40;;;13.60;99.90;;;;;;4143617;28;20112;-61
2023/05/16 02:31:31;;;;;;;12.93;7.90;;;13.60;99.90;;;;;;4145027;28;20545;-61
2023/05/16 02:33:33;;;;;;;11.87;8.30;;;13.60;99.90;;;;;;4144048;28;20109;-60
2023/05/16 02:35:34;;;;;;;13.88;8.75;;;13.70;99.90;;;;;;4144547;28;20088;-64
2023/05/16 02:37:36;;;;;;;13.77;8.97;;;13.70;99.90;;;;;;4144020;28;20076;-61
2023/05/16 02:39:37;;;;;;;11.60;7.77;;;13.70;99.90;;;;;;4145312;28;20085;-72
2023/05/16 02:41:38;;;;;;;13.23;7.70;;;13.60;99.90;;;;;;4144016;28;20069;-72
2023/05/16 02:43:39;;;;;;;11.97;7.53;;;13.60;99.90;;;;;;4144332;28;20049;-69
2023/05/16 02:45:41;;;;;;;13.70;8.03;;;13.60;99.90;;;;;;4143969;28;20084;-72
2023/05/16 02:47:42;;;;;;;13.67;8.57;;;13.60;99.90;;;;;;4147318;28;20081;-68
2023/05/16 02:49:43;;;;;;;16.10;8.23;;;13.60;99.90;;;;;;4146237;28;20034;-70
2023/05/16 02:51:44;;;;;;;12.87;8.40;;;13.50;99.90;;;;;;4147413;28;20363;-68
2023/05/16 02:53:45;;;;;;;16.53;8.23;;;13.50;99.90;;;;;;4147269;28;20049;-72
2023/05/16 02:55:46;;;;;;;13.80;8.07;;;13.50;99.90;;;;;;4147178;28;20041;-66
2023/05/16 02:57:49;;;;;;;12.32;7.88;;;13.50;99.90;;;;;;4147387;28;20498;-71
2023/05/16 02:59:50;;;;;;;9.30;7.80;;;13.50;99.90;;;;;;4146979;28;20068;-67
2023/05/16 03:01:51;;;;;;;12.70;8.03;;;13.50;99.90;;;;;;4147449;28;20038;-71
2023/05/16 03:03:53;;;;;;;11.83;8.30;;;13.50;99.90;;;;;;4146688;28;20030;-71
2023/05/16 03:05:54;;;;;;;18.23;9.50;;;13.50;99.90;;;;;;4147952;28;20076;-70
2023/05/16 03:07:55;;;;;;;12.73;8.77;;;13.50;99.90;;;;;;4146795;28;20482;-67
2023/05/16 03:09:56;;;;;;;16.43;8.87;;;13.50;99.90;;;;;;4147575;28;20026;-72
2023/05/16 03:11:58;;;;;;;10.47;7.30;;;13.50;99.90;;;;;;4145770;28;20034;-68
2023/05/16 03:13:59;;;;;;;12.37;8.00;;;13.60;99.90;;;;;;4147784;28;20026;-67
2023/05/16 03:16:00;;;;;;;12.60;7.83;;;13.60;99.90;;;;;;4146462;28;20045;-68
2023/05/16 03:18:02;;;;;;;16.33;8.13;;;13.60;99.90;;;;;;4147813;28;20030;-72
2023/05/16 03:20:04;;;;;;;15.57;7.80;;;13.60;99.90;;;;;;4146531;28;20018;-69
2023/05/16 03:22:05;;;;;;;13.27;9.23;;;13.60;99.90;;;;;;4146990;28;20073;-69
2023/05/16 03:24:06;;;;;;;16.63;8.83;;;13.60;99.90;;;;;;4147252;28;20382;-69
2023/05/16 03:26:08;;;;;;;11.10;7.85;;;13.60;99.90;;;;;;4146813;28;20529;-73
2023/05/16 03:28:09;;;;;;;11.20;7.80;;;13.60;99.90;;;;;;4146946;28;20026;-69
2023/05/16 03:30:11;;;;;;;11.40;8.43;;;13.60;99.90;;;;;;4146595;28;20033;-68
2023/05/16 03:32:13;;;;;;;15.07;8.93;;;13.60;99.90;;;;;;4147141;28;20092;-69
2023/05/16 03:34:14;;;;;;;13.80;8.20;;;13.60;99.90;;;;;;4128680;28;20081;-62
2023/05/16 03:36:15;;;;;;;12.73;8.53;;;13.60;99.90;;;;;;4147117;28;20034;-62
2023/05/16 03:38:16;;;;;;;12.90;8.40;;;13.70;99.90;;;;;;4145622;28;20041;-61
2023/05/16 03:40:18;;;;;;;14.13;9.20;;;13.60;99.90;;;;;;4147266;28;20804;-61
2023/05/16 03:42:19;;;;;;;11.73;8.17;;;13.60;99.90;;;;;;4128274;28;20534;-62
2023/05/16 03:44:20;;;;;;;9.83;7.90;;;13.60;99.90;;;;;;4146494;28;20103;-61
2023/05/16 03:46:21;;;;;;;11.53;7.20;;;13.60;99.90;;;;;;4144995;28;20103;-60
2023/05/16 03:48:22;;;;;;;11.97;7.40;;;13.70;99.90;;;;;;4147068;28;20482;-61
2023/05/16 03:50:24;;;;;;;13.57;7.67;;;13.70;99.90;;;;;;4145713;28;20080;-60
2023/05/16 03:52:25;;;;;;;14.77;7.60;;;13.70;99.90;;;;;;4146164;28;20115;-61
2023/05/16 03:54:26;;;;;;;13.30;7.73;;;13.70;99.90;;;;;;4146538;28;20038;-61
2023/05/16 03:56:27;;;;;;;12.40;7.63;;;13.80;99.90;;;;;;4146274;28;20033;-61
2023/05/16 03:58:28;;;;;;;12.60;7.40;;;13.80;99.90;;;;;;4145221;28;20049;-61
2023/05/16 04:00:30;;;;;;;12.07;6.70;;;13.90;99.90;;;;;;4145845;28;20080;-61
2023/05/16 04:02:31;;;;;;;11.38;7.80;;;13.90;99.90;;;;;;4153837;28;20457;-60
2023/05/16 04:04:32;;;;;;;20.25;14.15;;;14.00;99.90;;;;;;4162077;28;20493;-60
2023/05/16 04:06:33;;;;;;;19.70;13.17;;;13.90;99.90;;;;;;4145563;28;20156;-60
2023/05/16 04:08:34;;;;;;;18.03;10.23;;;13.90;99.90;;;;;;4161795;28;20088;-60
2023/05/16 04:10:35;;;;;;;17.77;11.13;;;13.80;99.90;;;;;;4158287;28;20084;-66
2023/05/16 04:12:37;;;;;;;14.67;7.90;;;13.80;99.90;;;;;;4161199;28;20021;-60
2023/05/16 04:14:38;;;;;;;11.87;8.10;;;13.80;99.90;;;;;;4162642;28;20033;-60
2023/05/16 04:16:39;;;;;;;13.50;7.60;;;13.80;99.90;;;;;;4160200;28;20563;-61
2023/05/16 04:18:40;;;;;;;12.48;7.18;;;13.80;99.90;;;;;;4155044;28;20105;-64
2023/05/16 04:20:42;;;;;;;12.25;7.00;;;13.90;99.90;;;;;;4148524;28;20096;-61
2023/05/16 04:22:46;;;;;;;19.23;10.87;;;13.80;99.90;;;;;;4140824;28;20105;-61
2023/05/16 04:24:48;;;;;;;9.87;7.23;;;13.90;99.90;;;;;;4154472;28;20034;-64
2023/05/16 04:26:50;;;;;;;10.73;6.70;;;13.90;99.90;;;;;;4157141;28;20516;-61
2023/05/16 04:28:51;;;;;;;16.40;7.53;;;13.90;99.90;;;;;;4149745;28;20719;-74
2023/05/16 04:30:53;;;;;;;16.23;7.83;;;13.90;99.90;;;;;;4153629;28;20033;-70
2023/05/16 04:32:54;;;;;;;13.23;6.83;;;13.90;99.90;;;;;;4157824;28;20092;-66
2023/05/16 04:34:55;;;;;;;15.20;7.40;;;14.00;99.90;;;;;;4148435;28;20838;-66
2023/05/16 04:36:56;;;;;;;12.07;6.50;;;14.00;99.90;;;;;;4162472;28;20091;-66
2023/05/16 04:38:57;;;;;;;10.97;6.40;;;14.00;99.90;;;;;;4161542;28;20030;-68
2023/05/16 04:40:59;;;;;;;12.60;7.23;;;14.00;99.90;;;;;;4162355;28;20026;-69
2023/05/16 04:43:00;;;;;;;13.50;7.80;;;14.10;99.90;;;;;;4148156;28;20085;-66
2023/05/16 04:45:02;;;;;;;14.10;8.50;;;14.10;99.90;;;;;;4147450;28;20034;-69
2023/05/16 04:47:04;;;;;;;20.23;9.67;;;14.10;99.90;;;;;;4145914;28;20096;-67
2023/05/16 04:49:05;;;;;;;17.65;12.07;;;14.10;99.90;;;;;;4146792;28;20092;-64
2023/05/16 04:51:06;;;;;;;27.90;14.95;;;14.20;99.90;;;;;;4150049;28;20029;-72
2023/05/16 04:53:08;;;;;;;21.10;16.73;;;14.10;99.90;;;;;;4162538;28;20033;-69
2023/05/16 04:55:10;;;;;;;29.57;17.17;;;14.10;99.90;;;;;;4151765;28;20062;-72
2023/05/16 04:57:11;;;;;;;25.10;15.53;;;14.00;99.90;;;;;;4152315;28;20548;-67
2023/05/16 04:59:12;;;;;;;24.63;14.67;;;14.00;99.90;;;;;;4161372;28;20099;-72
2023/05/16 05:01:13;;;;;;;28.53;13.97;;;14.00;99.90;;;;;;4161331;28;20037;-71
2023/05/16 05:03:14;;;;;;;24.58;13.68;;;14.00;99.90;;;;;;4145906;28;20064;-71
2023/05/16 05:05:16;;;;;;;23.73;14.40;;;14.00;99.90;;;;;;4146154;28;20482;-68
2023/05/16 05:07:17;;;;;;;20.38;12.25;;;14.00;99.90;;;;;;4150276;28;20493;-66
2023/05/16 05:09:18;;;;;;;22.73;13.27;;;14.00;99.90;;;;;;4158219;28;20049;-69
2023/05/16 05:11:19;;;;;;;20.60;12.60;;;14.10;99.90;;;;;;4145506;28;20092;-70
2023/05/16 05:13:21;;;;;;;22.13;13.63;;;14.10;99.90;;;;;;4144538;28;20026;-74
2023/05/16 05:15:22;;;;;;;21.08;12.10;;;14.10;99.90;;;;;;4127857;28;20286;-72
2023/05/16 05:17:23;;;;;;;20.98;12.82;;;14.10;99.90;;;;;;4144569;28;20422;-71
2023/05/16 05:19:24;;;;;;;22.87;13.13;;;14.10;99.90;;;;;;4145443;28;20435;-75
2023/05/16 05:21:25;;;;;;;20.38;12.88;;;14.20;99.90;;;;;;4143289;28;20050;-71
2023/05/16 05:23:26;;;;;;;20.90;12.75;;;14.20;99.90;;;;;;4145456;28;20080;-67
2023/05/16 05:25:28;;;;;;;25.08;12.65;;;14.20;99.90;;;;;;4143064;28;20080;-73
2023/05/16 05:27:30;;;;;;;18.45;13.13;;;14.30;99.90;;;;;;4144611;28;20034;-76
2023/05/16 05:29:31;;;;;;;21.45;12.43;;;14.30;99.90;;;;;;4144174;28;20096;-67
2023/05/16 05:31:33;;;;;;;19.35;12.18;;;14.30;99.90;;;;;;4144020;28;20045;-71
2023/05/16 05:33:36;;;;;;;21.33;11.80;;;14.30;99.90;;;;;;4144110;28;20409;-74
2023/05/16 05:35:37;;;;;;;14.20;10.88;;;14.30;99.90;;;;;;4144220;28;20506;-70
2023/05/16 05:37:38;;;;;;;19.95;10.52;;;14.30;99.90;;;;;;4144447;28;20453;-74
2023/05/16 05:39:39;;;;;;;18.70;10.85;;;14.20;99.90;;;;;;4143574;28;20568;-73
2023/05/16 05:41:41;;;;;;;22.83;11.23;;;14.20;99.90;;;;;;4145140;28;20072;-71
2023/05/16 05:43:42;;;;;;;20.42;10.82;;;14.10;99.90;;;;;;4144366;28;20088;-62
2023/05/16 05:45:43;;;;;;;23.27;10.95;;;14.10;99.90;;;;;;4145276;28;20092;-74
2023/05/16 05:47:45;;;;;;;27.90;11.77;;;14.10;99.90;;;;;;4143803;28;20486;-75
2023/05/16 05:49:46;;;;;;;25.08;11.38;;;14.10;99.90;;;;;;4145291;28;20438;-73
2023/05/16 05:51:50;;;;;;;23.27;12.27;;;14.00;99.90;;;;;;4143861;28;20137;-75
2023/05/16 05:53:53;;;;;;;36.88;12.10;;;14.00;99.90;;;;;;4145613;28;20022;-73
2023/05/16 05:55:54;;;;;;;23.07;11.90;;;14.10;99.90;;;;;;4143878;28;20512;-69
2023/05/16 05:57:55;;;;;;;25.30;11.05;;;14.00;99.90;;;;;;4143894;28;20104;-71
2023/05/16 05:59:56;;;;;;;21.03;11.63;;;14.10;99.90;;;;;;4143971;28;20018;-69
2023/05/16 06:01:57;;;;;;;26.43;12.00;;;14.10;99.90;;;;;;4144386;28;20022;-73
2023/05/16 06:03:58;;;;;;;21.63;11.73;;;14.00;99.90;;;;;;4144523;28;20025;-72
2023/05/16 06:06:00;;;;;;;22.50;12.40;;;14.10;99.90;;;;;;4143935;28;20092;-75
2023/05/16 06:08:01;;;;;;;23.05;11.55;;;14.10;99.90;;;;;;4144081;28;20081;-74
2023/05/16 06:10:04;;;;;;;21.03;11.87;;;14.10;99.90;;;;;;4143901;28;20025;-75
2023/05/16 06:12:05;;;;;;;19.97;12.17;;;14.00;99.90;;;;;;4145137;28;20029;-73
2023/05/16 06:14:06;;;;;;;18.45;11.93;;;14.00;99.90;;;;;;4143893;28;20025;-75
2023/05/16 06:16:07;;;;;;;21.23;13.90;;;14.00;99.90;;;;;;4144854;28;20143;-72
2023/05/16 06:18:09;;;;;;;25.58;12.73;;;14.00;99.90;;;;;;4126101;28;20038;-72
2023/05/16 06:20:10;;;;;;;23.73;13.07;;;14.00;99.90;;;;;;4144977;28;20092;-76
2023/05/16 06:22:11;;;;;;;17.80;12.07;;;14.00;99.90;;;;;;4146295;28;20030;-70
2023/05/16 06:24:12;;;;;;;23.05;11.82;;;14.10;99.90;;;;;;4148235;28;20049;-70
2023/05/16 06:26:14;;;;;;;22.87;13.17;;;14.10;99.90;;;;;;4146921;28;20038;-73
2023/05/16 06:28:15;;;;;;;19.15;11.88;;;14.10;99.90;;;;;;4147941;28;20069;-68
2023/05/16 06:30:16;;;;;;;19.57;12.07;;;14.10;99.90;;;;;;4146542;28;20037;-73
2023/05/16 06:32:18;;;;;;;21.70;12.30;;;14.10;99.90;;;;;;4147377;28;20030;-61
2023/05/16 06:34:22;;;;;;;21.30;12.83;;;14.10;99.90;;;;;;4147462;28;20096;-63
2023/05/16 06:36:25;;;;;;;29.05;13.38;;;14.20;99.90;;;;;;4146857;28;20100;-60
2023/05/16 06:38:26;;;;;;;20.50;11.93;;;14.20;99.90;;;;;;4147556;28;20030;-71
2023/05/16 06:40:27;;;;;;;24.77;11.48;;;14.20;99.90;;;;;;4146824;28;20030;-76
2023/05/16 06:42:28;;;;;;;25.00;11.23;;;14.20;99.90;;;;;;4147720;28;20088;-73
2023/05/16 06:44:30;;;;;;;25.45;11.45;;;14.20;99.90;;;;;;4146791;28;20034;-67
2023/05/16 06:46:31;;;;;;;21.73;11.33;;;14.20;99.90;;;;;;4147951;28;20029;-69
2023/05/16 06:48:32;;;;;;;21.10;11.67;;;14.30;99.90;;;;;;4146591;28;20034;-60
2023/05/16 06:50:34;;;;;;;23.23;11.27;;;14.30;99.90;;;;;;4147837;28;20029;-74
2023/05/16 06:52:35;;;;;;;25.13;11.60;;;14.30;99.90;;;;;;4146490;28;20037;-72
2023/05/16 06:54:36;;;;;;;24.52;12.18;;;14.30;99.90;;;;;;4130369;28;20134;-62
2023/05/16 06:56:38;;;;;;;18.33;10.77;;;14.40;99.90;;;;;;4146249;28;20478;-74
2023/05/16 06:58:39;;;;;;;16.92;10.30;;;14.40;99.90;;;;;;4147249;28;20490;-75
2023/05/16 07:00:40;;;;;;;20.67;10.27;;;14.30;99.90;;;;;;4146275;28;20431;-71
2023/05/16 07:02:41;;;;;;;16.40;9.50;;;14.40;99.90;;;;;;4146346;28;20124;-75
2023/05/16 07:04:43;;;;;;;18.60;9.88;;;14.40;99.90;;;;;;4146660;28;20030;-60
2023/05/16 07:06:44;;;;;;;17.60;9.15;;;14.40;99.90;;;;;;4146795;28;20065;-64
2023/05/16 07:08:45;;;;;;;18.90;10.45;;;14.50;99.90;;;;;;4146556;28;20532;-70
2023/05/16 07:10:46;;;;;;;21.10;10.35;;;14.50;99.90;;;;;;4146262;28;20080;-74
2023/05/16 07:12:47;;;;;;;25.48;13.05;;;14.50;99.90;;;;;;4147095;28;20081;-72
2023/05/16 07:14:48;;;;;;;20.10;10.55;;;14.50;99.90;;;;;;4145851;28;20111;-61
2023/05/16 07:16:50;;;;;;;17.95;9.63;;;14.60;99.90;;;;;;4147309;28;20482;-74
2023/05/16 07:18:51;;;;;;;21.85;10.15;;;14.60;99.90;;;;;;4146170;28;20108;-61
2023/05/16 07:20:52;;;;;;;17.15;10.20;;;14.60;99.90;;;;;;4147221;28;20537;-62
2023/05/16 07:22:56;;;;;;;19.48;10.00;;;14.60;99.90;;;;;;4146145;28;20083;-75
2023/05/16 07:24:59;;;;;;;18.73;10.25;;;14.60;99.90;;;;;;4147158;28;20046;-71
2023/05/16 07:27:00;;;;;;;17.90;9.68;;;14.70;99.90;;;;;;4145040;28;20092;-67
2023/05/16 07:29:03;;;;;;;19.95;9.48;;;14.70;99.90;;;;;;4146982;28;20038;-76
2023/05/16 07:31:05;;;;;;;15.25;8.88;;;14.70;99.90;;;;;;4145995;28;20421;-67
2023/05/16 07:33:06;;;;;;;16.45;8.25;;;14.80;99.90;;;;;;4147006;28;20543;-76
2023/05/16 07:35:08;;;;;;;18.25;9.05;;;14.80;99.90;;;;;;4145500;28;20033;-62
2023/05/16 07:37:11;;;;;;;17.73;8.55;;;14.80;99.90;;;;;;4146516;28;20367;-60
2023/05/16 07:39:13;;;;;;;17.48;9.23;;;14.80;99.90;;;;;;4146067;28;20120;-62
2023/05/16 07:41:14;;;;;;;15.25;9.30;;;14.80;99.90;;;;;;4146356;28;20022;-62
2023/05/16 07:43:15;;;;;;;17.98;9.93;;;14.80;99.90;;;;;;4146437;28;20076;-73
2023/05/16 07:45:17;;;;;;;20.95;11.35;;;14.80;99.90;;;;;;4145578;28;20033;-74
2023/05/16 07:47:18;;;;;;;16.55;8.90;;;14.90;99.90;;;;;;4146950;28;20034;-72
2023/05/16 07:49:19;;;;;;;15.55;8.00;;;14.90;99.90;;;;;;4145617;28;20030;-71
2023/05/16 07:51:21;;;;;;;16.83;10.10;;;14.90;99.90;;;;;;4146806;28;20042;-76
2023/05/16 07:53:22;;;;;;;15.68;8.18;;;14.90;99.90;;;;;;4144593;28;20085;-72
2023/05/16 07:55:23;;;;;;;13.55;8.43;;;14.90;99.90;;;;;;4146970;28;20034;-75
2023/05/16 07:57:24;;;;;;;15.70;8.25;;;14.90;99.90;;;;;;4145195;28;20046;-75
2023/05/16 07:59:25;;;;;;;15.40;7.18;;;14.80;99.90;;;;;;4146766;28;20418;-76
2023/05/16 08:01:26;;;;;;;13.43;9.35;;;14.80;99.90;;;;;;4144976;28;20442;-73
2023/05/16 08:03:28;;;;;;;14.55;8.30;;;14.80;99.90;;;;;;4145959;28;20045;-76
2023/05/16 08:05:29;;;;;;;13.93;8.30;;;14.80;99.90;;;;;;4145649;28;20018;-74
2023/05/16 08:07:30;;;;;;;21.10;8.65;;;14.80;99.90;;;;;;4146093;28;20076;-68
2023/05/16 08:09:31;;;;;;;12.90;7.00;;;14.90;99.90;;;;;;4145782;28;20030;-66
2023/05/16 08:11:32;;;;;;;12.70;7.80;;;14.90;99.90;;;;;;4145557;28;20118;-63
2023/05/16 08:13:33;;;;;;;13.70;7.65;;;14.90;99.90;;;;;;4146024;28;20071;-63
2023/05/16 08:15:35;;;;;;;15.32;8.68;;;14.90;99.90;;;;;;4144390;28;20096;-61
2023/05/16 08:17:37;;;;;;;14.45;8.23;;;15.00;99.90;;;;;;4146152;28;20378;-62
2023/05/16 08:19:38;;;;;;;14.48;8.30;;;15.00;99.90;;;;;;4144681;28;20038;-73
2023/05/16 08:21:39;;;;;;;14.35;8.55;;;15.00;99.90;;;;;;4146042;28;20037;-76
2023/05/16 08:23:41;;;;;;;14.85;8.68;;;15.10;99.90;;;;;;4145015;28;20026;-73
2023/05/16 08:25:42;;;;;;;14.75;7.65;;;15.10;99.90;;;;;;4146536;28;20057;-67
2023/05/16 08:27:47;;;;;;;15.90;8.27;;;15.10;99.90;;;;;;4144944;28;20096;-71
2023/05/16 08:29:49;;;;;;;17.90;7.88;;;15.10;99.90;;;;;;4146316;28;20026;-73
2023/05/16 08:31:50;;;;;;;11.27;6.88;;;15.10;99.90;;;;;;4144646;28;20092;-66
2023/05/16 08:33:51;;;;;;;10.55;6.93;;;15.20;99.90;;;;;;4128712;28;20076;-71
2023/05/16 08:35:52;;;;;;;17.05;8.25;;;15.20;99.90;;;;;;4145271;28;21072;-74
2023/05/16 08:37:53;;;;;;;15.18;8.40;;;15.20;99.90;;;;;;4145715;28;20030;-74
2023/05/16 08:39:55;;;;;;;13.52;7.63;;;15.20;99.90;;;;;;4144438;28;20034;-71
2023/05/16 08:41:57;;;;;;;13.00;8.60;;;15.20;99.90;;;;;;4145004;28;20076;-70
2023/05/16 08:43:58;;;;;;;15.82;7.20;;;15.30;99.90;;;;;;4144937;28;20022;-73
2023/05/16 08:45:59;;;;;;;15.27;7.60;;;15.30;99.90;;;;;;4144468;28;20053;-66
2023/05/16 08:48:02;;;;;;;14.07;7.97;;;15.40;99.90;;;;;;4145847;28;20097;-73
2023/05/16 08:50:04;;;;;;;16.00;8.68;;;15.40;99.90;;;;;;4144197;28;20446;-73
2023/05/16 08:52:07;;;;;;;15.10;6.90;;;15.60;99.90;;;;;;4145688;28;20084;-75
2023/05/16 08:54:15;;;;;;;14.05;6.78;;;15.60;99.90;;;;;;4144348;28;20033;-69
2023/05/16 08:56:17;;;;;;;18.60;7.53;;;15.70;99.90;;;;;;4145748;28;20096;-68
2023/05/16 08:58:19;;;;;;;11.63;7.10;;;15.70;99.90;;;;;;4144481;28;20553;-73
2023/05/16 09:00:21;;;;;;;16.30;8.48;;;15.70;99.90;;;;;;4145633;28;20056;-68
2023/05/16 09:02:22;;;;;;;15.00;7.30;;;15.70;99.90;;;;;;4144010;28;20042;-74
2023/05/16 09:04:24;;;;;;;17.98;7.95;;;15.80;99.90;;;;;;4145639;28;20417;-62
2023/05/16 09:06:26;;;;;;;13.25;6.60;;;15.80;99.90;;;;;;4144383;28;20441;-61
2023/05/16 09:08:27;;;;;;;15.80;7.78;;;15.80;99.90;;;;;;4145655;28;21000;-65
2023/05/16 09:10:29;;;;;;;13.48;8.07;;;15.90;99.90;;;;;;4144244;28;20073;-61
2023/05/16 09:12:30;;;;;;;12.63;8.15;;;15.90;99.90;;;;;;4144638;28;20564;-73
2023/05/16 09:14:31;;;;;;;11.07;7.13;;;16.00;99.90;;;;;;4144046;28;20038;-73
2023/05/16 09:16:32;;;;;;;14.00;7.32;;;16.00;99.90;;;;;;4144664;28;20096;-72
2023/05/16 09:18:34;;;;;;;12.00;7.38;;;16.00;99.90;;;;;;4126806;28;20093;-72
2023/05/16 09:20:41;;;;;;;12.27;6.22;;;16.10;99.90;;;;;;4144058;28;20065;-71
2023/05/16 09:22:54;;;;;;;11.50;6.50;;;16.10;99.90;;;;;;4144548;28;20050;-74
2023/05/16 09:24:58;;;;;;;20.50;7.07;;;16.20;99.90;;;;;;4144931;28;20037;-75
2023/05/16 09:27:10;;;;;;;11.55;6.80;;;16.20;99.90;;;;;;4144926;28;20069;-70
2023/05/16 09:29:12;;;;;;;11.05;6.53;;;16.30;99.90;;;;;;4143765;28;20560;-74
2023/05/16 09:31:31;;;;;;;10.05;5.97;;;16.40;99.90;;;;;;4145291;28;20339;-66
2023/05/16 09:33:32;;;;;;;16.80;7.20;;;16.40;99.90;;;;;;4143850;28;20041;-72
2023/05/16 09:35:33;;;;;;;17.40;6.78;;;16.50;99.90;;;;;;4145271;28;20036;-74
2023/05/16 09:37:34;;;;;;;17.13;6.15;;;16.60;99.90;;;;;;4144163;28;20037;-68
2023/05/16 09:39:35;;;;;;;11.50;6.13;;;16.60;99.90;;;;;;4144715;28;20047;-76
2023/05/16 09:41:36;;;;;;;14.82;6.38;;;16.60;99.90;;;;;;4143388;28;20100;-70
2023/05/16 09:43:39;;;;;;;12.55;7.32;;;16.60;99.90;;;;;;4145210;28;20466;-72
2023/05/16 09:45:45;;;;;;;11.90;6.15;;;16.60;99.90;;;;;;4143415;28;20091;-71
2023/05/16 09:47:46;;;;;;;10.23;4.85;;;16.70;99.90;;;;;;4145183;28;20030;-71
2023/05/16 09:49:52;;;;;;;13.18;5.43;;;16.70;99.90;;;;;;4143580;28;20160;-64
2023/05/16 09:51:53;;;;;;;11.57;5.22;;;16.80;99.90;;;;;;4145080;28;20057;-69
2023/05/16 09:53:57;;;;;;;10.02;5.80;;;16.80;99.90;;;;;;4143715;28;20026;-66
2023/05/16 09:56:06;;;;;;;11.57;5.65;;;16.90;99.90;;;;;;4144341;28;20026;-74
2023/05/16 09:58:07;;;;;;;14.00;6.35;;;17.00;99.90;;;;;;4144042;28;20108;-68
2023/05/16 10:00:12;;;;;;;13.75;5.65;;;17.20;99.90;;;;;;4144521;28;20713;-73
2023/05/16 10:02:14;;;;;;;11.70;5.60;;;17.20;99.90;;;;;;4144119;28;20030;-75
2023/05/16 10:04:15;;;;;;;8.20;5.57;;;17.30;99.90;;;;;;4144623;28;20089;-72
2023/05/16 10:06:17;;;;;;;13.90;5.32;;;17.40;99.90;;;;;;4143965;28;20050;-73
2023/05/16 10:08:23;;;;;;;8.10;5.00;;;17.50;99.90;;;;;;4144173;28;20038;-75
2023/05/16 10:10:25;;;;;;;10.45;5.80;;;17.60;99.90;;;;;;4144689;28;20026;-71
2023/05/16 10:12:32;;;;;;;13.90;5.72;;;17.80;99.90;;;;;;4143772;28;20034;-71
2023/05/16 10:14:36;;;;;;;14.60;6.00;;;17.90;99.90;;;;;;4144889;28;20552;-68
2023/05/16 10:16:43;;;;;;;9.50;4.93;;;18.00;99.90;;;;;;4143629;28;20034;-72
2023/05/16 10:18:44;;;;;;;9.88;4.65;;;18.10;99.90;;;;;;4144687;28;20091;-71
2023/05/16 10:20:48;;;;;;;12.68;5.90;;;18.20;99.90;;;;;;4143698;28;20484;-66
2023/05/16 10:22:52;;;;;;;13.18;6.63;;;18.30;99.90;;;;;;4144263;28;20437;-69
2023/05/16 10:25:32;;;;;;;12.32;5.53;;;18.30;99.90;;;;;;4143804;28;20038;-74
2023/05/16 10:27:33;;;;;;;11.20;5.80;;;18.30;99.90;;;;;;4100803;28;20545;-71